Terminal Aerodrome Forecast
Issued by NWS

Home | Current Version | Previous Version | Text Only | Print | Product List | Glossary On
Versions: 1 2 3 4 5 6 7 8 9 10 11 12 13
000
FTUS43 KJKL 130500
TAFSME
TAF
KSME 130540Z 1306/1406 00000KT P6SM SCT100 SCT200
     FM131700 23010KT P6SM SCT050 SCT150
     FM140400 VRB05KT P6SM VCTS BKN040CB=

USA.gov is the U.S. government's official web portal to all federal, state and local government web resources and services.